Time;durP1;ratioP1;P1;durP2;ratioP2;P2;SDS_P1;SDS_P2;PMS_P1;PMS_P2;Temp;Humidity;BMP_temperature;BMP_pressure;BME280_temperature;BME280_humidity;BME280_pressure;Samples;Min_cycle;Max_cycle;Signal;HPM_P1;HPM_P2
2023/08/26 00:01:10;;;;;;;4.93;2.20;;;;;;;21.97;61.08;100999.84;5031151;28;20080;-44
2023/08/26 00:03:36;;;;;;;5.88;2.53;;;;;;;22.08;60.25;100994.22;5029884;28;20045;-46
2023/08/26 00:06:01;;;;;;;6.30;2.28;;;;;;;22.16;60.22;100992.16;5030408;28;20045;-47
2023/08/26 00:08:26;;;;;;;4.47;2.15;;;;;;;22.22;59.96;100998.16;5030615;28;20049;-45
2023/08/26 00:10:52;;;;;;;5.03;2.20;;;;;;;22.20;59.85;100985.88;5030961;28;20132;-46
2023/08/26 00:13:17;;;;;;;3.58;1.90;;;;;;;22.22;60.06;100986.66;5030294;28;20042;-45
2023/08/26 00:15:42;;;;;;;5.80;2.53;;;;;;;22.02;60.51;100999.69;5029488;28;20120;-44
2023/08/26 00:18:08;;;;;;;6.35;2.70;;;;;;;21.98;60.51;100998.06;5030304;28;20037;-45
2023/08/26 00:20:34;;;;;;;5.22;2.40;;;;;;;21.86;62.54;100997.50;5029863;28;20511;-44
2023/08/26 00:23:00;;;;;;;6.90;2.95;;;;;;;21.57;65.36;100997.53;5029820;28;20037;-43
2023/08/26 00:25:25;;;;;;;6.93;2.88;;;;;;;21.28;68.38;100992.22;5029119;28;20052;-46
2023/08/26 00:27:51;;;;;;;4.95;2.83;;;;;;;20.93;71.26;100993.16;5030203;28;20065;-48
2023/08/26 00:30:16;;;;;;;9.77;2.80;;;;;;;21.18;70.60;100988.94;5029798;28;20033;-44
2023/08/26 00:32:41;;;;;;;5.22;2.40;;;;;;;21.31;70.16;100986.81;5029639;28;20034;-46
2023/08/26 00:35:07;;;;;;;6.07;2.70;;;;;;;21.03;71.36;100984.94;5029226;28;20059;-39
2023/08/26 00:37:32;;;;;;;6.05;2.60;;;;;;;21.15;70.97;100981.09;5029641;28;20672;-43
2023/08/26 00:39:57;;;;;;;7.22;2.70;;;;;;;21.19;71.49;100979.22;5035635;28;20037;-46
2023/08/26 00:42:23;;;;;;;4.72;2.33;;;;;;;21.23;70.69;100976.41;5035417;28;20051;-44
2023/08/26 00:44:48;;;;;;;5.25;2.40;;;;;;;21.36;70.34;100980.47;5033765;28;20124;-43
2023/08/26 00:47:13;;;;;;;6.20;2.75;;;;;;;21.23;70.52;100979.06;5030193;28;20425;-48
2023/08/26 00:49:39;;;;;;;5.40;2.55;;;;;;;21.32;70.17;100985.91;5029629;28;20033;-42
2023/08/26 00:52:05;;;;;;;5.50;2.50;;;;;;;21.30;70.33;100980.63;5029467;28;20030;-43
2023/08/26 00:54:32;;;;;;;7.05;2.78;;;;;;;21.00;70.82;100985.00;5028985;28;20080;-47
2023/08/26 00:56:57;;;;;;;6.43;2.88;;;;;;;21.04;70.01;100967.25;5029118;28;20667;-46
2023/08/26 00:59:23;;;;;;;5.80;2.50;;;;;;;21.04;69.46;100975.19;5029227;28;20041;-44
2023/08/26 01:01:49;;;;;;;7.32;2.67;;;;;;;20.93;69.98;100969.28;5029318;28;20040;-50
2023/08/26 01:04:16;;;;;;;6.22;2.67;;;;;;;21.03;69.31;100968.16;5029493;28;20045;-50
2023/08/26 01:06:41;;;;;;;7.65;2.63;;;;;;;21.00;69.19;100966.44;5028666;28;20029;-43
2023/08/26 01:09:07;;;;;;;6.18;2.35;;;;;;;20.92;68.97;100970.25;5029419;28;20048;-47
2023/08/26 01:11:55;;;;;;;7.40;2.60;;;;;;;20.56;70.47;100962.34;5028810;28;20175;-46
2023/08/26 01:14:34;;;;;;;7.75;2.70;;;;;;;20.51;70.82;100958.94;5028685;28;20033;-50
2023/08/26 01:17:03;;;;;;;4.40;2.30;;;;;;;20.44;70.31;100951.19;5028721;28;20033;-45
2023/08/26 01:19:40;;;;;;;6.00;2.20;;;;;;;20.45;70.25;100952.94;5027954;28;20033;-43
2023/08/26 01:22:08;;;;;;;4.15;2.25;;;;;;;20.42;70.31;100953.91;5028855;28;20440;-46
2023/08/26 01:24:34;;;;;;;7.15;2.22;;;;;;;20.32;70.23;100964.72;5028595;28;20204;-46
2023/08/26 01:27:00;;;;;;;3.85;2.20;;;;;;;20.28;70.10;100953.34;5027178;28;20041;-45
2023/08/26 01:29:26;;;;;;;6.68;2.20;;;;;;;20.25;70.39;100956.06;5028236;28;20033;-48
2023/08/26 01:32:02;;;;;;;5.32;2.50;;;;;;;20.22;70.22;100961.44;5028951;28;20148;-46
2023/08/26 01:34:32;;;;;;;7.40;2.42;;;;;;;19.93;71.65;100964.81;5028188;28;20434;-49
2023/08/26 01:36:59;;;;;;;4.68;2.30;;;;;;;20.25;70.92;100964.00;5028266;28;20033;-43
2023/08/26 01:39:27;;;;;;;7.10;2.45;;;;;;;20.38;70.75;100962.81;5028415;28;20678;-43
2023/08/26 01:41:54;;;;;;;6.25;2.30;;;;;;;20.32;71.19;100960.31;5028277;28;20080;-44
2023/08/26 01:44:20;;;;;;;5.53;2.33;;;;;;;20.34;70.68;100957.66;5028029;28;20037;-45
2023/08/26 01:46:46;;;;;;;7.10;2.40;;;;;;;20.33;70.86;100964.72;5027896;28;20141;-44
2023/08/26 01:49:11;;;;;;;5.25;2.20;;;;;;;20.41;71.19;100965.41;5028396;28;20034;-44
2023/08/26 01:51:37;;;;;;;5.93;2.20;;;;;;;20.56;71.35;100964.13;5027918;28;20095;-45
2023/08/26 01:54:06;;;;;;;7.00;2.40;;;;;;;20.67;70.72;100954.13;5027998;28;20105;-48
2023/08/26 01:56:31;;;;;;;7.25;2.35;;;;;;;20.74;70.62;100958.34;5027576;28;20045;-46
2023/08/26 01:58:56;;;;;;;8.85;2.63;;;;;;;20.54;71.26;100960.66;5028682;28;20037;-44
2023/08/26 02:01:22;;;;;;;5.63;2.15;;;;;;;20.67;70.44;100970.03;5027694;28;20128;-44
2023/08/26 02:03:47;;;;;;;8.95;2.50;;;;;;;20.60;70.89;100973.75;5028565;28;20124;-49
2023/08/26 02:06:12;;;;;;;8.02;2.50;;;;;;;20.43;71.76;100965.38;5026895;28;20060;-43
2023/08/26 02:08:38;;;;;;;8.98;2.75;;;;;;;20.21;73.85;100965.88;5027765;28;20437;-45
2023/08/26 02:11:03;;;;;;;8.68;2.80;;;;;;;20.21;73.95;100965.88;5028087;28;20041;-49
2023/08/26 02:13:29;;;;;;;11.30;3.40;;;;;;;20.02;75.40;100972.50;5027726;28;20700;-46
2023/08/26 02:15:55;;;;;;;6.82;2.85;;;;;;;20.32;74.42;100973.56;5028138;28;20040;-45
2023/08/26 02:18:21;;;;;;;11.40;3.50;;;;;;;20.24;74.62;100962.28;5028116;28;20125;-45
2023/08/26 02:20:48;;;;;;;9.85;3.40;;;;;;;20.40;74.01;100962.78;5027623;28;20144;-43
2023/08/26 02:23:14;;;;;;;8.05;3.55;;;;;;;20.36;74.28;100959.34;5027950;28;20179;-43
2023/08/26 02:25:39;;;;;;;8.63;3.42;;;;;;;20.28;74.27;100963.94;5026994;28;20034;-43
2023/08/26 02:28:05;;;;;;;9.65;3.22;;;;;;;20.15;75.39;100958.06;5028122;28;20056;-45
2023/08/26 02:30:30;;;;;;;8.38;3.38;;;;;;;20.13;75.35;100956.34;5027466;28;20087;-50
2023/08/26 02:32:55;;;;;;;7.90;3.30;;;;;;;19.66;77.48;100963.66;5028129;28;20116;-43
2023/08/26 02:35:21;;;;;;;7.75;3.80;;;;;;;19.98;76.63;100965.56;5027127;28;20034;-43
2023/08/26 02:37:46;;;;;;;9.45;4.20;;;;;;;19.98;76.63;100967.34;5028212;28;20179;-42
2023/08/26 02:40:11;;;;;;;10.10;4.93;;;;;;;19.85;77.00;100969.38;5026925;28;20037;-46
2023/08/26 02:42:37;;;;;;;9.23;4.72;;;;;;;20.09;76.13;100963.50;5027767;28;20045;-48
2023/08/26 02:45:04;;;;;;;11.60;5.80;;;;;;;19.91;76.82;100958.66;5028334;28;20026;-45
2023/08/26 02:47:29;;;;;;;10.07;5.72;;;;;;;20.06;76.01;100947.72;5028197;28;20037;-44
2023/08/26 02:49:55;;;;;;;11.73;6.22;;;;;;;20.11;75.80;100959.06;5028889;28;20033;-43
2023/08/26 02:52:20;;;;;;;11.98;5.65;;;;;;;19.91;76.31;100953.38;5027974;28;20041;-44
2023/08/26 02:54:45;;;;;;;10.18;4.72;;;;;;;20.09;75.90;100954.69;5027912;28;20567;-48
2023/08/26 02:57:11;;;;;;;10.95;4.65;;;;;;;20.13;75.72;100964.31;5028552;28;20033;-43
2023/08/26 02:59:36;;;;;;;10.90;4.28;;;;;;;20.18;75.58;100960.66;5029112;28;20136;-52
2023/08/26 03:02:06;;;;;;;8.20;4.13;;;;;;;20.00;76.38;100963.75;5028648;28;20033;-44
2023/08/26 03:04:31;;;;;;;9.32;4.07;;;;;;;20.15;75.55;100960.72;5027914;28;20037;-44
2023/08/26 03:06:57;;;;;;;7.28;3.60;;;;;;;20.32;75.27;100956.78;5030251;28;20419;-43
2023/08/26 03:09:22;;;;;;;8.18;3.97;;;;;;;20.03;75.82;100966.31;5031397;28;20095;-44
2023/08/26 03:11:47;;;;;;;7.82;3.65;;;;;;;20.22;75.44;100967.59;5031612;28;20085;-47
2023/08/26 03:14:14;;;;;;;13.38;4.03;;;;;;;19.63;77.31;100970.78;5031574;28;20037;-45
2023/08/26 03:16:40;;;;;;;7.85;3.60;;;;;;;19.92;76.79;100967.47;5030617;28;20033;-45
2023/08/26 03:19:05;;;;;;;9.93;3.50;;;;;;;20.07;76.31;100961.81;5031812;28;20404;-44
2023/08/26 03:21:31;;;;;;;7.55;3.53;;;;;;;20.29;75.59;100968.34;5031286;28;20083;-43
2023/08/26 03:23:57;;;;;;;7.70;3.15;;;;;;;20.11;75.96;100956.41;5031785;28;20030;-47
2023/08/26 03:26:23;;;;;;;8.18;3.45;;;;;;;20.28;75.34;100963.94;5031478;28;20075;-42
2023/08/26 03:28:48;;;;;;;7.20;3.35;;;;;;;19.97;76.11;100962.94;5033192;28;20041;-47
2023/08/26 03:31:14;;;;;;;7.70;3.58;;;;;;;19.87;76.39;100958.78;5032334;28;20144;-43
2023/08/26 03:33:40;;;;;;;7.75;3.10;;;;;;;19.84;76.21;100960.59;5031755;28;20033;-47
2023/08/26 03:36:06;;;;;;;8.25;3.35;;;;;;;19.89;76.08;100962.25;5031386;28;20042;-43
2023/08/26 03:38:33;;;;;;;6.88;3.40;;;;;;;19.96;75.57;100969.13;5030871;28;20468;-47
2023/08/26 03:41:04;;;;;;;8.48;3.30;;;;;;;19.97;75.28;100965.59;5031933;28;20033;-43
2023/08/26 03:43:30;;;;;;;7.13;3.10;;;;;;;19.98;74.85;100962.03;5030816;28;20029;-48
2023/08/26 03:45:56;;;;;;;8.18;3.08;;;;;;;19.97;74.70;100968.22;5030763;28;20591;-44
2023/08/26 03:48:21;;;;;;;9.73;3.40;;;;;;;19.48;75.30;100965.81;5030603;28;20692;-44
2023/08/26 03:50:55;;;;;;;7.60;3.20;;;;;;;19.65;74.63;100961.91;5030698;28;20152;-44
2023/08/26 03:53:20;;;;;;;8.35;3.50;;;;;;;19.48;74.98;100966.69;5030528;28;20033;-49
2023/08/26 03:55:46;;;;;;;9.57;3.20;;;;;;;19.42;74.88;100962.38;5030386;28;20031;-44
2023/08/26 03:58:12;;;;;;;11.70;3.30;;;;;;;19.47;74.70;100962.31;5031008;28;20116;-45
2023/08/26 04:00:37;;;;;;;9.32;3.53;;;;;;;19.46;74.35;100965.84;5030459;28;20111;-46
2023/08/26 04:03:04;;;;;;;8.25;3.67;;;;;;;19.19;75.00;100963.78;5030483;28;20038;-49
2023/08/26 04:05:30;;;;;;;7.00;3.30;;;;;;;19.33;74.62;100961.72;5029947;28;20037;-43
2023/08/26 04:07:55;;;;;;;7.68;3.30;;;;;;;19.05;75.33;100970.19;5030840;28;20060;-46
2023/08/26 04:10:20;;;;;;;11.75;3.20;;;;;;;18.92;75.62;100973.09;5030211;28;20033;-44
2023/08/26 04:12:46;;;;;;;12.48;3.20;;;;;;;19.14;75.02;100979.72;5030420;28;20033;-47
2023/08/26 04:15:11;;;;;;;7.07;3.70;;;;;;;19.07;74.90;100967.53;5030057;28;20499;-49
2023/08/26 04:17:37;;;;;;;5.97;3.40;;;;;;;19.04;75.13;100973.75;5030464;28;20468;-43
2023/08/26 04:20:02;;;;;;;8.82;3.58;;;;;;;19.13;74.62;100975.34;5030777;28;20113;-47
2023/08/26 04:22:28;;;;;;;8.55;3.55;;;;;;;18.99;74.81;100974.72;5030245;28;20040;-42
2023/08/26 04:24:53;;;;;;;7.97;3.90;;;;;;;19.00;74.96;100974.72;5030443;28;20040;-45
2023/08/26 04:27:19;;;;;;;7.00;3.42;;;;;;;18.86;75.77;100983.78;5030610;28;20080;-45
2023/08/26 04:29:44;;;;;;;10.25;4.00;;;;;;;18.95;75.52;100986.28;5030692;28;20061;-49
2023/08/26 04:32:09;;;;;;;7.70;3.67;;;;;;;19.02;75.12;100977.31;5030128;28;20033;-43
2023/08/26 04:34:35;;;;;;;8.52;3.90;;;;;;;18.94;75.15;100976.59;5030971;28;20471;-42
2023/08/26 04:37:00;;;;;;;7.63;3.58;;;;;;;18.82;75.37;100972.41;5031389;28;20425;-47
2023/08/26 04:39:26;;;;;;;8.68;3.50;;;;;;;18.91;75.29;100974.88;5031266;28;20037;-45
2023/08/26 04:41:51;;;;;;;9.57;3.63;;;;;;;18.87;75.10;100974.97;5030709;28;20034;-47
2023/08/26 04:44:19;;;;;;;9.40;3.78;;;;;;;18.85;75.13;100977.63;5029840;28;20476;-44
2023/08/26 04:46:45;;;;;;;6.47;3.55;;;;;;;18.82;75.16;100983.00;5021152;28;20041;-47
2023/08/26 04:49:10;;;;;;;8.10;3.58;;;;;;;18.86;75.12;100983.78;5029901;28;20041;-43
2023/08/26 04:51:37;;;;;;;7.85;3.65;;;;;;;18.85;75.11;100989.97;5029178;28;20030;-43
2023/08/26 04:54:03;;;;;;;8.77;3.80;;;;;;;18.79;75.29;100983.03;5030001;28;20034;-43
2023/08/26 04:56:28;;;;;;;10.25;3.83;;;;;;;18.84;75.04;100993.53;5029032;28;20038;-46
2023/08/26 04:58:54;;;;;;;8.55;3.75;;;;;;;18.74;75.71;100992.81;5030233;28;20038;-47
2023/08/26 05:01:20;;;;;;;7.93;3.40;;;;;;;18.90;75.09;100991.66;5029320;28;20048;-45
2023/08/26 05:03:45;;;;;;;8.88;3.42;;;;;;;18.89;75.25;100995.19;5029666;28;20492;-44
2023/08/26 05:06:10;;;;;;;10.00;3.60;;;;;;;18.91;75.46;101005.69;5031041;28;20131;-45
2023/08/26 05:08:36;;;;;;;8.23;3.47;;;;;;;18.83;75.52;100999.72;5031653;28;20033;-47
2023/08/26 05:11:01;;;;;;;10.60;3.88;;;;;;;18.94;75.50;100995.97;5030637;28;20156;-44
2023/08/26 05:13:26;;;;;;;7.10;3.17;;;;;;;19.11;75.09;100995.63;5029085;28;20068;-45
2023/08/26 05:15:52;;;;;;;7.85;3.40;;;;;;;19.09;75.16;101005.34;5029229;28;20068;-47
2023/08/26 05:18:18;;;;;;;8.60;3.15;;;;;;;19.23;74.99;101007.72;5029627;28;20041;-46
2023/08/26 05:20:47;;;;;;;8.23;3.30;;;;;;;19.20;74.38;100998.09;5028917;28;20482;-43
2023/08/26 05:23:12;;;;;;;6.25;3.10;;;;;;;19.24;74.38;101002.41;5029552;28;20049;-44
2023/08/26 05:25:38;;;;;;;7.70;2.90;;;;;;;19.17;74.71;100997.28;5027933;28;20028;-43
2023/08/26 05:28:04;;;;;;;9.55;3.10;;;;;;;19.15;74.83;101002.59;5029183;28;20111;-44
2023/08/26 05:30:30;;;;;;;9.98;2.80;;;;;;;19.05;74.93;101001.03;5028721;28;20186;-44
2023/08/26 05:32:55;;;;;;;7.38;2.80;;;;;;;19.39;74.17;101007.38;5029275;28;20033;-43
2023/08/26 05:35:21;;;;;;;5.72;2.70;;;;;;;19.54;73.43;101006.22;5027859;28;20121;-43
2023/08/26 05:37:46;;;;;;;7.55;2.70;;;;;;;19.53;73.53;101011.53;5027589;28;20033;-44
2023/08/26 05:40:13;;;;;;;5.70;2.33;;;;;;;19.58;72.04;101005.25;5028979;28;20033;-46
2023/08/26 05:42:38;;;;;;;6.57;2.30;;;;;;;19.84;72.49;100996.75;5028431;28;20060;-46
2023/08/26 05:45:05;;;;;;;7.50;2.47;;;;;;;19.86;72.01;100994.94;5028494;28;20068;-47
2023/08/26 05:47:30;;;;;;;7.93;2.45;;;;;;;20.21;71.59;100988.81;5028396;28;20121;-49
2023/08/26 05:49:58;;;;;;;6.50;2.25;;;;;;;20.03;71.57;100994.56;5028962;28;20124;-48
2023/08/26 05:52:24;;;;;;;6.28;2.40;;;;;;;20.20;71.13;100985.28;5028496;28;20044;-44
2023/08/26 05:54:49;;;;;;;7.63;2.40;;;;;;;20.36;69.96;100982.31;5028462;28;20037;-47
2023/08/26 05:57:15;;;;;;;7.75;2.33;;;;;;;20.49;69.83;100973.16;5028956;28;20044;-43
2023/08/26 05:59:40;;;;;;;8.07;2.42;;;;;;;20.17;70.12;100990.69;5028220;28;20029;-50
2023/08/26 06:02:06;;;;;;;4.88;2.20;;;;;;;20.60;69.50;100985.22;5028165;28;20064;-44
2023/08/26 06:04:32;;;;;;;9.63;2.40;;;;;;;20.29;69.80;100983.34;5027958;28;20384;-48
2023/08/26 06:06:57;;;;;;;8.60;2.42;;;;;;;20.20;70.00;100985.28;5028053;28;20040;-43
2023/08/26 06:09:24;;;;;;;6.32;2.20;;;;;;;20.64;69.50;100988.63;5028240;28;20037;-47
2023/08/26 06:11:49;;;;;;;7.22;2.40;;;;;;;20.88;69.49;100987.97;5028423;28;20037;-48
2023/08/26 06:14:14;;;;;;;7.30;2.50;;;;;;;21.06;68.42;100981.31;5028320;28;20523;-44
2023/08/26 06:16:40;;;;;;;6.53;2.50;;;;;;;20.72;68.56;100983.16;5027366;28;20125;-45
2023/08/26 06:19:05;;;;;;;5.95;2.33;;;;;;;21.14;68.13;100981.97;5028147;28;20182;-48
2023/08/26 06:21:30;;;;;;;6.57;2.70;;;;;;;21.27;66.98;100990.47;5027666;28;20038;-45
2023/08/26 06:23:56;;;;;;;6.00;2.50;;;;;;;21.35;67.82;100997.28;5028046;28;20484;-44
2023/08/26 06:26:21;;;;;;;9.88;2.55;;;;;;;21.35;66.96;100993.75;5027353;28;20360;-44
2023/08/26 06:28:46;;;;;;;5.88;2.47;;;;;;;21.78;67.05;100991.56;5028334;28;20408;-44
2023/08/26 06:31:12;;;;;;;6.95;2.40;;;;;;;22.14;63.37;100999.34;5028088;28;20461;-47
2023/08/26 06:33:37;;;;;;;9.15;2.30;;;;;;;22.70;63.17;101002.75;5027426;28;20069;-45
2023/08/26 06:36:03;;;;;;;9.18;2.63;;;;;;;23.06;61.39;101016.56;5027511;28;20053;-46
2023/08/26 06:38:28;;;;;;;5.60;2.70;;;;;;;22.90;61.30;101028.66;5027863;28;20064;-43
2023/08/26 06:40:57;;;;;;;6.07;2.50;;;;;;;22.92;60.08;101025.06;5030424;28;20037;-45
2023/08/26 06:43:23;;;;;;;7.85;2.58;;;;;;;21.92;64.38;101024.78;5031853;28;20037;-43
2023/08/26 06:45:49;;;;;;;6.53;2.22;;;;;;;21.76;64.95;101021.72;5032437;28;20115;-47
2023/08/26 06:48:16;;;;;;;6.72;2.50;;;;;;;21.48;65.45;101016.38;5033000;28;20072;-43
2023/08/26 06:50:41;;;;;;;6.03;2.42;;;;;;;21.56;65.86;101016.16;5032311;28;20029;-45
2023/08/26 06:53:07;;;;;;;5.25;2.38;;;;;;;21.40;64.69;101021.03;5032135;28;20090;-45
2023/08/26 06:55:32;;;;;;;8.98;2.80;;;;;;;21.44;65.06;101025.34;5031596;28;20080;-43
2023/08/26 06:57:58;;;;;;;7.25;2.72;;;;;;;21.59;65.49;101024.03;5032973;28;20042;-43
2023/08/26 07:00:23;;;;;;;6.28;2.80;;;;;;;21.54;64.83;101024.16;5032025;28;20088;-47
2023/08/26 07:02:49;;;;;;;6.30;3.10;;;;;;;21.23;65.12;101024.16;5032904;28;20041;-43
2023/08/26 07:05:14;;;;;;;7.28;3.13;;;;;;;21.80;65.97;101020.72;5032534;28;20056;-43
2023/08/26 07:07:40;;;;;;;6.90;3.10;;;;;;;22.63;61.92;101025.13;5032756;28;20033;-44
2023/08/26 07:10:06;;;;;;;5.22;3.05;;;;;;;23.00;61.08;101022.09;5033004;28;20098;-47
2023/08/26 07:12:31;;;;;;;5.15;2.60;;;;;;;24.18;57.16;101014.97;5032348;28;20041;-43
2023/08/26 07:14:57;;;;;;;5.53;2.83;;;;;;;24.54;57.06;101020.56;5032839;28;20033;-45
2023/08/26 07:17:22;;;;;;;4.97;2.60;;;;;;;25.52;53.40;101022.50;5032415;28;20086;-43
2023/08/26 07:19:48;;;;;;;4.65;2.58;;;;;;;25.97;49.68;101022.19;5033182;28;20030;-46
2023/08/26 07:22:13;;;;;;;5.80;2.58;;;;;;;26.73;47.05;101020.19;5032717;28;20081;-45
2023/08/26 07:24:38;;;;;;;4.78;2.25;;;;;;;26.32;47.76;101011.59;5032303;28;20572;-45
2023/08/26 07:27:04;;;;;;;4.85;1.90;;;;;;;26.99;49.00;101017.94;5032352;28;20033;-45
2023/08/26 07:29:36;;;;;;;5.70;2.25;;;;;;;27.08;45.74;101015.75;5032406;28;20037;-42
2023/08/26 07:32:02;;;;;;;5.55;1.90;;;;;;;26.76;46.45;101023.59;5032290;28;20045;-48
2023/08/26 07:34:27;;;;;;;3.47;1.80;;;;;;;26.93;47.78;101018.28;5031884;28;20057;-45
2023/08/26 07:36:53;;;;;;;4.72;2.00;;;;;;;26.00;49.23;101021.16;5032165;28;20452;-48
2023/08/26 07:39:21;;;;;;;3.50;1.83;;;;;;;26.52;48.37;101023.03;5032360;28;20041;-44
2023/08/26 07:41:46;;;;;;;4.72;2.10;;;;;;;26.56;47.56;101026.41;5032126;28;20435;-43
2023/08/26 07:44:12;;;;;;;5.47;1.92;;;;;;;26.68;48.22;101023.13;5032208;28;20033;-46
2023/08/26 07:46:37;;;;;;;6.72;2.20;;;;;;;26.19;48.42;101019.31;5031483;28;20041;-50
2023/08/26 07:49:03;;;;;;;7.13;2.10;;;;;;;25.43;49.96;101028.28;5032437;28;20064;-47
2023/08/26 07:51:28;;;;;;;5.93;2.00;;;;;;;25.38;50.66;101024.91;5031108;28;20163;-45
2023/08/26 07:53:54;;;;;;;5.68;1.98;;;;;;;25.71;48.58;101022.53;5032030;28;20040;-48
2023/08/26 07:56:19;;;;;;;5.22;2.10;;;;;;;25.24;51.66;101028.22;5031117;28;20492;-45
2023/08/26 07:58:44;;;;;;;6.90;2.28;;;;;;;24.50;53.05;101026.97;5031939;28;20037;-45
2023/08/26 08:01:10;;;;;;;5.10;2.03;;;;;;;24.82;53.15;101032.75;5031814;28;20034;-45
2023/08/26 08:03:35;;;;;;;5.93;2.00;;;;;;;25.05;52.31;101029.97;5031981;28;20392;-46
2023/08/26 08:06:00;;;;;;;2.72;1.60;;;;;;;23.75;54.57;101029.09;5031332;28;20043;-44
2023/08/26 08:08:26;;;;;;;6.07;1.70;;;;;;;24.10;54.70;101030.34;5031446;28;20042;-46
2023/08/26 08:10:51;;;;;;;4.35;1.50;;;;;;;23.83;55.20;101037.66;5032174;28;20454;-42
2023/08/26 08:13:16;;;;;;;4.80;1.52;;;;;;;23.29;57.75;101039.69;5032751;28;20042;-45
2023/08/26 08:15:42;;;;;;;3.70;1.50;;;;;;;23.32;57.24;101034.25;5030906;28;20120;-47
2023/08/26 08:18:07;;;;;;;4.40;1.60;;;;;;;23.29;55.67;101023.72;5031351;28;20043;-44
2023/08/26 08:20:33;;;;;;;4.45;1.75;;;;;;;22.47;57.28;101024.78;5030783;28;20483;-45
2023/08/26 08:22:58;;;;;;;3.13;1.48;;;;;;;22.62;58.64;101032.25;5031352;28;20047;-45
2023/08/26 08:25:24;;;;;;;3.75;1.35;;;;;;;22.67;58.89;101040.94;5030453;28;20033;-46
2023/08/26 08:27:50;;;;;;;5.15;1.70;;;;;;;22.94;58.06;101038.25;5031429;28;20037;-46
2023/08/26 08:30:15;;;;;;;5.95;1.73;;;;;;;22.69;58.40;101043.53;5031327;28;20488;-44
2023/08/26 08:32:40;;;;;;;5.07;1.40;;;;;;;22.67;56.51;101048.91;5030783;28;20182;-48
2023/08/26 08:35:06;;;;;;;6.40;1.70;;;;;;;22.93;55.67;101048.03;5030821;28;20412;-45
2023/08/26 08:37:32;;;;;;;3.00;1.50;;;;;;;22.96;55.12;101047.94;5029067;28;20099;-49
2023/08/26 08:39:58;;;;;;;3.45;1.33;;;;;;;22.76;57.04;101050.41;5031200;28;20492;-45
2023/08/26 08:42:24;;;;;;;3.00;1.40;;;;;;;22.45;59.03;101049.66;5029542;28;20072;-50
2023/08/26 08:44:50;;;;;;;3.63;1.83;;;;;;;22.46;57.43;101043.44;5030741;28;20408;-43
2023/08/26 08:47:16;;;;;;;4.28;1.83;;;;;;;22.74;56.55;101056.72;5031312;28;20086;-42
2023/08/26 08:49:42;;;;;;;4.80;2.17;;;;;;;21.96;60.49;101075.09;5030609;28;20040;-41
2023/08/26 08:52:09;;;;;;;4.53;2.35;;;;;;;22.26;59.16;101062.69;5030870;28;20038;-43
2023/08/26 08:54:35;;;;;;;4.70;2.10;;;;;;;21.82;61.41;101066.66;5030311;28;20492;-44
2023/08/26 08:57:03;;;;;;;6.85;2.17;;;;;;;22.42;60.49;101068.38;5030694;28;20041;-43
2023/08/26 08:59:30;;;;;;;4.25;2.22;;;;;;;22.18;60.04;101070.00;5030777;28;20041;-43
2023/08/26 09:01:58;;;;;;;5.28;2.20;;;;;;;22.77;59.15;101061.91;5030654;28;20041;-45
2023/08/26 09:04:28;;;;;;;3.75;1.90;;;;;;;23.22;57.48;101070.09;5029248;28;20079;-47
2023/08/26 09:06:54;;;;;;;3.42;1.52;;;;;;;23.48;56.14;101078.03;5030535;28;20057;-46
2023/08/26 09:09:20;;;;;;;3.35;1.40;;;;;;;23.20;56.35;101074.59;5030355;28;20049;-48
2023/08/26 09:11:49;;;;;;;4.03;1.80;;;;;;;23.48;55.58;101071.84;5030471;28;20040;-49
2023/08/26 09:14:15;;;;;;;1.95;1.40;;;;;;;23.85;54.45;101077.50;5028986;28;20504;-49
2023/08/26 09:16:42;;;;;;;2.80;1.40;;;;;;;23.90;54.12;101080.00;5029637;28;20038;-44
2023/08/26 09:19:10;;;;;;;2.25;1.42;;;;;;;23.63;53.92;101074.81;5030654;28;20076;-48
2023/08/26 09:21:43;;;;;;;3.10;1.50;;;;;;;24.21;53.07;101070.78;5029624;28;20041;-49
2023/08/26 09:24:17;;;;;;;3.85;1.50;;;;;;;24.01;53.37;101078.66;5030192;28;20041;-43
2023/08/26 09:26:56;;;;;;;4.05;1.50;;;;;;;23.70;54.73;101088.75;5030252;28;20034;-43
2023/08/26 09:29:21;;;;;;;3.33;1.60;;;;;;;23.44;55.55;101079.03;5030374;28;20356;-44
2023/08/26 09:31:48;;;;;;;3.70;1.50;;;;;;;23.72;54.38;101084.25;5031325;28;20033;-44
2023/08/26 09:34:22;;;;;;;3.17;1.40;;;;;;;23.58;55.92;101079.44;5028761;28;20034;-42
2023/08/26 09:36:48;;;;;;;2.30;1.60;;;;;;;23.64;56.40;101084.53;5030317;28;20496;-43
2023/08/26 09:39:14;;;;;;;3.90;1.45;;;;;;;24.00;54.31;101071.59;5030449;28;20041;-44
2023/08/26 09:41:44;;;;;;;4.53;1.60;;;;;;;24.03;54.85;101065.31;5029104;28;20034;-44
2023/08/26 09:44:11;;;;;;;3.85;1.92;;;;;;;24.49;53.52;101067.88;5030667;28;20124;-43
2023/08/26 09:46:37;;;;;;;4.65;2.08;;;;;;;24.40;52.24;101064.72;5029866;28;20068;-44
2023/08/26 09:49:03;;;;;;;3.03;1.40;;;;;;;23.59;52.97;101078.50;5030563;28;20124;-47
2023/08/26 09:51:30;;;;;;;3.88;1.70;;;;;;;23.72;53.52;101068.28;5029752;28;20519;-45
2023/08/26 09:53:56;;;;;;;3.63;1.58;;;;;;;24.39;51.74;101057.66;5029982;28;20519;-48
2023/08/26 09:56:24;;;;;;;4.03;1.58;;;;;;;24.87;51.49;101066.28;5029520;28;20095;-51
2023/08/26 09:58:54;;;;;;;3.72;1.52;;;;;;;24.50;52.25;101071.41;5030193;28;20033;-49
2023/08/26 10:01:21;;;;;;;3.63;1.80;;;;;;;24.57;51.72;101067.56;5029292;28;20140;-47
2023/08/26 10:03:52;;;;;;;3.20;1.67;;;;;;;24.51;52.97;101074.03;5029992;28;20037;-46
2023/08/26 10:06:21;;;;;;;3.65;1.65;;;;;;;23.86;54.17;101080.13;5029521;28;20072;-44
2023/08/26 10:08:51;;;;;;;2.63;1.55;;;;;;;24.25;52.49;101084.88;5029533;28;20033;-44
2023/08/26 10:11:19;;;;;;;3.30;1.60;;;;;;;24.65;51.38;101082.31;5029168;28;20034;-47
2023/08/26 10:13:47;;;;;;;4.13;1.90;;;;;;;23.95;54.98;101083.38;5029139;28;20039;-44
2023/08/26 10:16:15;;;;;;;4.35;1.90;;;;;;;23.39;58.63;101083.66;5028860;28;20602;-43
2023/08/26 10:18:51;;;;;;;4.38;2.00;;;;;;;23.68;59.00;101082.59;5029136;28;20041;-49
2023/08/26 10:21:17;;;;;;;4.60;2.00;;;;;;;23.55;59.59;101081.31;5029632;28;20120;-45
2023/08/26 10:23:42;;;;;;;8.20;2.55;;;;;;;23.62;60.72;101081.03;5029093;28;20129;-45
2023/08/26 10:26:08;;;;;;;5.63;1.90;;;;;;;23.21;60.85;101081.66;5028903;28;20040;-44
2023/08/26 10:28:35;;;;;;;6.57;2.10;;;;;;;22.63;64.99;101083.59;5029146;28;20061;-44
2023/08/26 10:31:06;;;;;;;4.90;2.08;;;;;;;22.61;65.70;101082.78;5029476;28;20030;-45
2023/08/26 10:33:44;;;;;;;5.70;2.15;;;;;;;22.74;65.79;101080.63;5029084;28;20451;-45
2023/08/26 10:36:13;;;;;;;3.83;2.25;;;;;;;22.48;68.46;101077.00;5029096;28;20053;-43
2023/08/26 10:38:39;;;;;;;4.93;2.30;;;;;;;22.22;69.80;101080.50;4983101;28;20049;-44
2023/08/26 10:41:10;;;;;;;5.03;2.30;;;;;;;22.80;68.02;101077.78;5029468;28;20144;-44
2023/08/26 10:43:35;;;;;;;4.97;2.55;;;;;;;22.89;67.49;101072.13;5029383;28;20087;-42
2023/08/26 10:46:01;;;;;;;3.75;1.95;;;;;;;22.47;66.95;101069.06;5029533;28;20049;-47
2023/08/26 10:48:27;;;;;;;4.50;1.75;;;;;;;22.72;66.08;101067.38;4978543;28;21129;-52
2023/08/26 10:51:00;;;;;;;7.40;3.05;;;;;;;23.03;64.21;101065.41;4971378;28;20048;-46
2023/08/26 10:53:26;;;;;;;5.55;1.83;;;;;;;23.00;63.31;101067.31;5029607;28;20038;-42
2023/08/26 10:55:52;;;;;;;4.57;1.98;;;;;;;23.37;63.28;101072.19;5029346;28;20037;-43
2023/08/26 10:58:19;;;;;;;7.05;1.67;;;;;;;22.78;64.50;101067.19;5030012;28;20061;-45
2023/08/26 11:00:53;;;;;;;6.32;1.80;;;;;;;22.55;64.60;101069.72;5028984;28;20030;-45
2023/08/26 11:03:22;;;;;;;2.85;1.30;;;;;;;22.50;62.84;101071.66;5028414;28;20064;-44
2023/08/26 11:06:04;;;;;;;2.75;1.20;;;;;;;23.03;61.82;101075.19;5028415;28;20029;-43
2023/08/26 11:08:30;;;;;;;2.60;1.10;;;;;;;23.39;59.89;101081.88;5028958;28;20048;-43
2023/08/26 11:10:56;;;;;;;2.38;1.13;;;;;;;23.12;60.85;101071.31;5029162;28;20044;-43
2023/08/26 11:13:22;;;;;;;3.80;1.30;;;;;;;23.36;59.24;101063.31;5028680;28;20030;-45
2023/08/26 11:15:50;;;;;;;2.92;1.00;;;;;;;23.56;60.02;101054.66;5028222;28;20084;-46
2023/08/26 11:18:16;;;;;;;2.38;1.10;;;;;;;23.86;57.24;101064.13;5029194;28;20037;-51
2023/08/26 11:20:43;;;;;;;3.15;1.10;;;;;;;23.69;58.05;101063.91;5027335;28;20550;-42